Time;durP1;ratioP1;P1;durP2;ratioP2;P2;SDS_P1;SDS_P2;PMS_P1;PMS_P2;Temp;Humidity;BMP_temperature;BMP_pressure;BME280_temperature;BME280_humidity;BME280_pressure;Samples;Min_cycle;Max_cycle;Signal;HPM_P1;HPM_P2
2024/01/14 00:01:22;;;;;;;41.27;18.80;;;-1.90;96.60;;;;;;5058816;28;20279;-74
2024/01/14 00:03:49;;;;;;;39.43;18.23;;;-1.90;96.30;;;;;;5061814;28;20196;-78
2024/01/14 00:06:16;;;;;;;37.30;17.03;;;-1.90;96.30;;;;;;5055434;28;20213;-74
2024/01/14 00:08:44;;;;;;;36.93;18.13;;;-1.90;96.20;;;;;;5048587;28;20284;-74
2024/01/14 00:11:11;;;;;;;41.07;18.50;;;-1.70;97.40;;;;;;5060225;28;20201;-74
2024/01/14 00:13:38;;;;;;;38.70;18.17;;;-1.50;97.20;;;;;;5056914;28;20201;-74
2024/01/14 00:16:12;;;;;;;37.67;18.30;;;-1.30;96.00;;;;;;5052171;28;20264;-74
2024/01/14 00:18:39;;;;;;;36.00;19.07;;;-1.50;94.50;;;;;;5055214;28;20194;-75
2024/01/14 00:21:09;;;;;;;38.47;18.63;;;-1.60;96.00;;;;;;5048336;28;20672;-74
2024/01/14 00:29:37;;;;;;;33.63;17.20;;;-1.50;95.90;;;;;;4950820;27;5191103;-74
2024/01/14 00:32:04;;;;;;;36.53;17.33;;;-2.10;94.60;;;;;;5098373;28;20202;-75
2024/01/14 00:34:31;;;;;;;33.60;16.90;;;-1.90;96.90;;;;;;5086639;28;20306;-75
2024/01/14 00:36:58;;;;;;;36.90;17.57;;;-1.90;96.30;;;;;;5101262;28;20215;-79
2024/01/14 00:39:24;;;;;;;37.23;18.30;;;-1.90;96.70;;;;;;5107314;28;20207;-75
2024/01/14 00:41:51;;;;;;;36.93;18.07;;;-2.00;96.20;;;;;;5105346;28;20204;-74
2024/01/14 00:44:19;;;;;;;38.87;18.53;;;-1.90;96.20;;;;;;5107726;28;20196;-75
2024/01/14 00:46:46;;;;;;;37.30;18.10;;;-1.80;96.40;;;;;;5105032;28;20193;-75
2024/01/14 00:49:13;;;;;;;41.30;19.80;;;-2.10;95.90;;;;;;5102582;28;21767;-74
2024/01/14 00:51:42;;;;;;;38.90;18.63;;;-2.00;97.10;;;;;;5108997;28;20198;-74
2024/01/14 00:54:29;;;;;;;41.03;18.13;;;-1.90;96.50;;;;;;5098896;28;20729;-74
2024/01/14 00:56:56;;;;;;;40.50;18.57;;;-1.90;96.00;;;;;;5107217;28;20225;-75
2024/01/14 00:59:24;;;;;;;39.53;19.33;;;-2.00;96.00;;;;;;5106582;28;20204;-74
2024/01/14 01:01:59;;;;;;;40.17;19.83;;;-2.10;96.10;;;;;;5110190;28;20198;-74
2024/01/14 01:04:26;;;;;;;39.27;18.63;;;-2.20;95.80;;;;;;5094153;28;20603;-75
2024/01/14 01:06:53;;;;;;;40.73;18.70;;;-2.30;96.50;;;;;;5099867;28;20204;-74
2024/01/14 01:09:24;;;;;;;37.70;18.30;;;-2.40;96.20;;;;;;5098638;28;20195;-74
2024/01/14 01:11:52;;;;;;;38.10;18.83;;;-2.30;97.20;;;;;;5089280;28;20205;-78
2024/01/14 01:14:20;;;;;;;37.53;18.40;;;-2.20;97.20;;;;;;5101362;28;20240;-74
2024/01/14 01:16:48;;;;;;;37.63;17.90;;;-2.30;96.30;;;;;;5096991;28;20200;-75
2024/01/14 01:19:14;;;;;;;38.67;17.20;;;-2.20;96.80;;;;;;5095109;28;20200;-74
2024/01/14 01:21:41;;;;;;;40.03;19.17;;;-1.90;97.50;;;;;;5094962;28;20196;-74
2024/01/14 01:24:18;;;;;;;39.13;18.37;;;-2.00;95.70;;;;;;5102649;28;20208;-74
2024/01/14 01:26:45;;;;;;;38.50;18.20;;;-2.20;95.70;;;;;;5101267;28;20204;-74
2024/01/14 01:29:13;;;;;;;34.67;16.87;;;-2.40;96.10;;;;;;5097401;28;20304;-76
2024/01/14 01:31:39;;;;;;;39.60;19.17;;;-2.50;96.30;;;;;;5095824;28;20560;-78
2024/01/14 01:34:07;;;;;;;40.93;19.50;;;-2.40;97.40;;;;;;5094644;28;20200;-78
2024/01/14 01:36:34;;;;;;;39.20;18.67;;;-2.50;97.50;;;;;;5095056;28;20197;-75
2024/01/14 01:39:02;;;;;;;39.70;18.40;;;-2.40;97.70;;;;;;5092709;28;20211;-74
2024/01/14 01:41:37;;;;;;;40.53;18.60;;;-2.60;96.90;;;;;;5084673;28;20198;-75
2024/01/14 01:44:27;;;;;;;40.37;18.50;;;-2.60;97.20;;;;;;5085167;28;20211;-73
2024/01/14 01:46:55;;;;;;;43.30;19.47;;;-2.50;98.70;;;;;;5083198;28;20206;-74
2024/01/14 01:49:57;;;;;;;37.90;18.43;;;-2.50;98.00;;;;;;5086241;28;20229;-74
2024/01/14 01:52:26;;;;;;;40.30;18.63;;;-2.20;98.00;;;;;;5085130;28;20200;-74
2024/01/14 01:54:56;;;;;;;40.83;18.40;;;-2.20;97.00;;;;;;5084055;28;20197;-74
2024/01/14 01:57:27;;;;;;;41.60;19.57;;;-2.00;96.20;;;;;;5083764;28;20695;-74
2024/01/14 01:59:54;;;;;;;39.63;18.43;;;-2.00;96.90;;;;;;5087690;28;20200;-74
2024/01/14 02:02:23;;;;;;;41.23;18.77;;;-1.90;96.50;;;;;;5082696;28;20219;-74
2024/01/14 02:04:50;;;;;;;36.27;18.03;;;-2.00;95.70;;;;;;5082755;28;20749;-74
2024/01/14 02:07:19;;;;;;;39.80;19.07;;;-2.30;95.50;;;;;;5087599;28;20207;-75
2024/01/14 02:09:48;;;;;;;40.70;18.73;;;-2.50;96.10;;;;;;5078959;28;20225;-74
2024/01/14 02:12:35;;;;;;;39.73;18.83;;;-2.40;97.50;;;;;;5084738;28;20197;-76
2024/01/14 02:15:01;;;;;;;37.53;18.23;;;-2.10;98.40;;;;;;5080858;28;20197;-74
2024/01/14 02:17:52;;;;;;;39.47;19.07;;;-1.90;97.30;;;;;;5084329;28;20201;-74
2024/01/14 02:20:19;;;;;;;39.13;17.77;;;-2.10;96.00;;;;;;5081815;28;20197;-74
2024/01/14 02:22:53;;;;;;;37.77;19.43;;;-2.20;96.60;;;;;;5085036;28;20672;-74
2024/01/14 02:25:21;;;;;;;43.50;19.67;;;-2.30;96.20;;;;;;5082995;28;20247;-74
2024/01/14 02:27:49;;;;;;;42.40;19.57;;;-2.50;96.80;;;;;;5084544;28;20216;-74
2024/01/14 02:30:16;;;;;;;41.50;19.67;;;-2.40;97.00;;;;;;5091120;28;20197;-74
2024/01/14 02:32:43;;;;;;;39.77;19.80;;;-2.60;96.90;;;;;;5085304;28;20194;-76
2024/01/14 02:35:10;;;;;;;40.90;19.40;;;-2.70;97.00;;;;;;5084963;28;20327;-74
2024/01/14 02:37:43;;;;;;;42.67;18.53;;;-2.50;98.70;;;;;;5087410;28;20809;-74
2024/01/14 02:40:10;;;;;;;38.67;18.93;;;-2.20;98.40;;;;;;5079476;28;20288;-74
2024/01/14 02:42:42;;;;;;;37.30;19.17;;;-2.20;96.60;;;;;;5080123;28;20647;-74
2024/01/14 02:45:09;;;;;;;40.80;18.60;;;-2.20;96.20;;;;;;5085568;28;20281;-74
2024/01/14 02:50:20;;;;;;;40.43;18.23;;;-2.30;96.70;;;;;;5083927;28;20219;-74
2024/01/14 02:52:52;;;;;;;38.77;18.20;;;-2.30;97.20;;;;;;5083623;28;20280;-74
2024/01/14 02:55:18;;;;;;;40.70;19.03;;;-2.00;97.70;;;;;;5082308;28;20201;-74
2024/01/14 02:57:47;;;;;;;41.77;19.80;;;-2.20;96.00;;;;;;5080565;28;20204;-75
2024/01/14 03:00:15;;;;;;;43.17;19.53;;;-2.40;96.10;;;;;;5083387;28;20200;-74
2024/01/14 03:02:52;;;;;;;38.67;17.70;;;-2.50;96.60;;;;;;5082563;28;20806;-77
2024/01/14 03:05:19;;;;;;;36.63;18.53;;;-2.60;96.50;;;;;;5079072;28;20216;-74
2024/01/14 03:07:48;;;;;;;34.10;17.50;;;-2.50;97.90;;;;;;5078819;28;20199;-74
2024/01/14 03:10:14;;;;;;;39.37;18.03;;;-2.40;97.50;;;;;;5081384;28;20288;-75
2024/01/14 03:12:41;;;;;;;37.50;18.00;;;-2.40;97.10;;;;;;5084044;28;20209;-74
2024/01/14 03:15:10;;;;;;;36.80;18.23;;;-2.40;97.50;;;;;;5087795;28;20242;-74
2024/01/14 03:17:36;;;;;;;36.00;17.80;;;-2.40;96.70;;;;;;5079264;28;20907;-74
2024/01/14 03:20:04;;;;;;;34.97;17.17;;;-2.40;96.30;;;;;;5079618;28;20197;-74
2024/01/14 03:22:31;;;;;;;39.17;17.87;;;-2.40;96.90;;;;;;5076980;28;20294;-74
2024/01/14 03:25:34;;;;;;;34.53;16.90;;;-2.50;96.90;;;;;;5086884;28;20205;-74
2024/01/14 03:28:01;;;;;;;34.17;16.53;;;-2.50;96.10;;;;;;5079688;28;20232;-74
2024/01/14 03:30:31;;;;;;;33.67;17.20;;;-2.50;96.70;;;;;;5081804;28;20199;-75
2024/01/14 03:33:13;;;;;;;35.97;18.10;;;-2.60;96.30;;;;;;5063401;28;20197;-74
2024/01/14 03:35:40;;;;;;;38.77;17.77;;;-2.70;96.40;;;;;;5085094;28;20193;-74
2024/01/14 03:38:07;;;;;;;38.07;18.03;;;-2.90;96.10;;;;;;5083164;28;21392;-74
2024/01/14 03:40:34;;;;;;;38.40;18.63;;;-3.10;96.60;;;;;;5088105;28;20192;-74
2024/01/14 03:43:01;;;;;;;34.07;17.70;;;-3.20;96.80;;;;;;5083942;28;20196;-74
2024/01/14 03:51:22;;;;;;;36.67;18.47;;;-3.10;97.70;;;;;;5079753;28;20563;-75
2024/01/14 03:53:49;;;;;;;40.43;18.77;;;-3.30;97.30;;;;;;5086352;28;20222;-74
2024/01/14 03:56:20;;;;;;;39.73;18.90;;;-3.40;97.70;;;;;;5080354;28;20192;-74
2024/01/14 03:59:02;;;;;;;38.03;17.13;;;-3.50;98.20;;;;;;5076092;28;20216;-74
2024/01/14 04:04:33;;;;;;;35.83;17.63;;;-3.30;99.00;;;;;;5077091;28;20220;-74
2024/01/14 04:07:00;;;;;;;39.30;17.33;;;-3.30;98.50;;;;;;5079126;28;20203;-74
2024/01/14 04:09:26;;;;;;;37.97;18.60;;;-3.20;98.90;;;;;;5084254;28;20220;-74
2024/01/14 04:12:30;;;;;;;39.20;18.00;;;-3.10;98.50;;;;;;5080073;28;20196;-74
2024/01/14 04:14:57;;;;;;;39.13;17.57;;;-3.20;98.50;;;;;;5078913;28;20204;-75
2024/01/14 04:17:45;;;;;;;39.50;18.80;;;-3.20;98.50;;;;;;5083801;28;20200;-74
2024/01/14 04:20:12;;;;;;;39.13;18.00;;;-3.30;97.80;;;;;;5087617;28;20192;-73
2024/01/14 04:22:41;;;;;;;39.00;19.10;;;-3.20;98.50;;;;;;5079510;28;20189;-76
2024/01/14 04:25:08;;;;;;;40.00;18.80;;;-3.10;98.60;;;;;;5081350;28;20193;-75
2024/01/14 04:27:37;;;;;;;37.10;17.23;;;-3.10;98.50;;;;;;5080125;28;20657;-75
2024/01/14 04:30:05;;;;;;;39.23;18.50;;;-2.80;98.60;;;;;;5081322;28;20664;-75
2024/01/14 04:35:14;;;;;;;38.93;19.20;;;-3.10;97.10;;;;;;5076521;28;20204;-77
2024/01/14 04:37:41;;;;;;;35.33;18.07;;;-3.00;97.70;;;;;;5073834;28;20645;-76
2024/01/14 04:40:09;;;;;;;42.17;19.10;;;-3.10;97.80;;;;;;5083850;28;20208;-75
2024/01/14 04:42:36;;;;;;;35.77;17.50;;;-2.80;98.00;;;;;;5085668;28;20209;-75
2024/01/14 04:45:03;;;;;;;39.33;18.80;;;-2.90;97.30;;;;;;5083327;28;20230;-75
2024/01/14 04:47:30;;;;;;;43.30;19.73;;;-3.00;97.50;;;;;;5085579;28;20655;-75
2024/01/14 04:49:57;;;;;;;39.47;19.63;;;-3.00;97.40;;;;;;5078577;28;20232;-76
2024/01/14 04:55:22;;;;;;;39.17;19.60;;;-3.10;98.60;;;;;;5082210;28;20193;-75
2024/01/14 04:57:49;;;;;;;39.60;18.80;;;-3.00;98.50;;;;;;5076860;28;20200;-76
2024/01/14 05:00:21;;;;;;;43.17;20.13;;;-3.10;98.50;;;;;;5075261;28;20288;-75
2024/01/14 05:02:48;;;;;;;42.17;20.10;;;-3.00;98.60;;;;;;5081299;28;20189;-75
2024/01/14 05:05:16;;;;;;;42.67;20.43;;;-3.00;98.60;;;;;;5079699;28;20813;-75
2024/01/14 05:07:47;;;;;;;40.23;19.47;;;-3.10;98.50;;;;;;5083811;28;20207;-75
2024/01/14 05:10:37;;;;;;;41.00;20.27;;;-3.10;98.50;;;;;;5078976;28;20224;-75
2024/01/14 05:13:04;;;;;;;43.93;20.20;;;-3.00;99.10;;;;;;5078122;28;20193;-75
2024/01/14 05:15:34;;;;;;;43.87;21.07;;;-2.90;98.60;;;;;;5079697;28;20196;-75
2024/01/14 05:18:01;;;;;;;42.93;20.27;;;-2.80;98.60;;;;;;5083439;28;20201;-75
2024/01/14 05:20:29;;;;;;;40.90;20.83;;;-2.70;98.60;;;;;;5086805;28;20193;-75
2024/01/14 05:22:57;;;;;;;45.37;21.03;;;-2.70;98.60;;;;;;5085156;28;20205;-75
2024/01/14 05:25:24;;;;;;;44.53;20.30;;;-2.70;98.30;;;;;;5084165;28;20201;-77
2024/01/14 05:27:51;;;;;;;41.53;19.17;;;-2.50;98.80;;;;;;5082534;28;20222;-75
2024/01/14 05:30:34;;;;;;;43.27;20.10;;;-2.20;98.70;;;;;;5085400;28;20213;-75
2024/01/14 05:33:01;;;;;;;41.07;20.20;;;-2.10;97.80;;;;;;5088414;28;20225;-75
2024/01/14 05:35:30;;;;;;;40.43;20.13;;;-2.10;97.30;;;;;;5081599;28;20201;-75
2024/01/14 05:37:58;;;;;;;43.13;20.43;;;-2.20;96.50;;;;;;5079537;28;20196;-75
2024/01/14 05:40:24;;;;;;;38.27;19.37;;;-2.20;97.40;;;;;;5084403;28;20217;-72
2024/01/14 05:42:51;;;;;;;44.43;21.07;;;-2.30;97.60;;;;;;5076194;28;20204;-74
2024/01/14 05:45:18;;;;;;;43.63;20.27;;;-2.20;97.80;;;;;;5082432;28;20197;-74
2024/01/14 05:47:45;;;;;;;41.07;20.53;;;-2.10;98.60;;;;;;5085985;28;20199;-73
2024/01/14 05:50:12;;;;;;;39.87;19.67;;;-2.10;97.30;;;;;;5085555;28;20221;-74
2024/01/14 05:52:42;;;;;;;44.43;19.97;;;-2.00;97.50;;;;;;5082617;28;20195;-74
2024/01/14 05:55:28;;;;;;;37.73;18.33;;;-1.90;96.80;;;;;;5082419;28;20197;-74
2024/01/14 05:57:58;;;;;;;38.43;19.37;;;-2.00;96.20;;;;;;5085091;28;20196;-73
2024/01/14 06:00:25;;;;;;;37.40;18.17;;;-1.90;96.50;;;;;;5087779;28;20758;-74
2024/01/14 06:03:01;;;;;;;39.07;18.57;;;-1.90;96.70;;;;;;5083166;28;20203;-75
2024/01/14 06:05:28;;;;;;;41.70;20.00;;;-2.00;96.30;;;;;;5085922;28;20218;-74
2024/01/14 06:07:54;;;;;;;40.83;18.87;;;-2.00;96.40;;;;;;5089409;28;20546;-74
2024/01/14 06:10:22;;;;;;;39.53;18.40;;;-1.90;96.20;;;;;;5083368;28;20229;-75
2024/01/14 06:12:50;;;;;;;39.77;19.13;;;-1.90;96.20;;;;;;5083815;28;20225;-74
2024/01/14 06:15:19;;;;;;;39.20;19.03;;;-1.70;95.90;;;;;;5086219;28;20664;-74
2024/01/14 06:17:46;;;;;;;35.30;17.90;;;-1.80;95.10;;;;;;5081448;28;20288;-74
2024/01/14 06:20:13;;;;;;;38.53;17.97;;;-2.00;94.90;;;;;;5081226;28;20197;-74
2024/01/14 06:22:40;;;;;;;36.60;17.93;;;-2.10;95.50;;;;;;5082848;28;20200;-74
2024/01/14 06:25:09;;;;;;;36.30;18.03;;;-2.00;96.20;;;;;;5080504;28;20198;-78
2024/01/14 06:28:06;;;;;;;36.63;18.83;;;-2.00;96.10;;;;;;5080539;28;20200;-73
2024/01/14 06:30:35;;;;;;;40.13;18.00;;;-1.90;95.70;;;;;;5077595;28;20254;-73
2024/01/14 06:33:02;;;;;;;36.70;18.80;;;-2.10;95.40;;;;;;5082898;28;20201;-76
2024/01/14 06:35:44;;;;;;;37.07;17.83;;;-2.00;96.10;;;;;;5082648;28;20199;-73
2024/01/14 06:38:12;;;;;;;34.60;17.70;;;-2.10;95.00;;;;;;5078289;28;20206;-73
2024/01/14 06:40:39;;;;;;;36.20;17.00;;;-2.20;95.70;;;;;;5086865;28;20226;-74
2024/01/14 06:43:09;;;;;;;35.13;18.60;;;-2.30;95.10;;;;;;5079398;28;20189;-77
2024/01/14 06:45:37;;;;;;;36.40;18.23;;;-2.10;96.70;;;;;;5084953;28;20194;-77
2024/01/14 06:48:07;;;;;;;35.37;17.47;;;-2.30;95.60;;;;;;5083331;28;20196;-74
2024/01/14 06:50:34;;;;;;;34.83;17.10;;;-2.60;95.10;;;;;;5083568;28;20232;-73
2024/01/14 06:53:00;;;;;;;31.60;16.40;;;-2.70;95.50;;;;;;5086272;28;20196;-74
2024/01/14 06:55:27;;;;;;;34.40;16.77;;;-2.70;95.30;;;;;;5087639;28;20575;-75
2024/01/14 06:57:55;;;;;;;32.33;17.10;;;-2.70;95.80;;;;;;5089798;28;20202;-73
2024/01/14 07:00:22;;;;;;;35.90;17.27;;;-2.80;95.70;;;;;;5080697;28;20216;-73
2024/01/14 07:03:16;;;;;;;36.70;17.80;;;-2.80;95.80;;;;;;5076993;28;20205;-74
2024/01/14 07:05:42;;;;;;;34.37;16.13;;;-2.80;96.00;;;;;;5082046;28;20208;-74
2024/01/14 07:08:12;;;;;;;34.33;16.67;;;-2.80;96.00;;;;;;5084370;28;20291;-75
2024/01/14 07:10:39;;;;;;;34.07;16.77;;;-2.80;94.60;;;;;;5081050;28;20224;-76
2024/01/14 07:13:14;;;;;;;34.10;17.33;;;-3.00;94.70;;;;;;5079394;28;20281;-75
2024/01/14 07:15:44;;;;;;;33.07;16.83;;;-2.90;96.20;;;;;;5083949;28;20198;-79
2024/01/14 07:18:13;;;;;;;29.80;16.20;;;-3.10;95.00;;;;;;5082869;28;20280;-75
2024/01/14 07:20:49;;;;;;;34.27;16.60;;;-3.20;95.10;;;;;;5080134;28;20803;-75
2024/01/14 07:23:37;;;;;;;32.33;16.53;;;-3.20;95.10;;;;;;5079634;28;20224;-75
2024/01/14 07:26:04;;;;;;;35.23;17.10;;;-3.30;95.60;;;;;;5079444;28;20201;-74
2024/01/14 07:31:12;;;;;;;35.40;17.40;;;-3.10;94.70;;;;;;5080749;28;20220;-76
2024/01/14 07:33:41;;;;;;;34.47;16.47;;;-3.10;94.70;;;;;;5083227;28;20201;-73
2024/01/14 07:36:08;;;;;;;36.43;17.57;;;-3.20;95.00;;;;;;5081763;28;20208;-75
2024/01/14 07:38:34;;;;;;;34.03;16.43;;;-3.00;94.70;;;;;;5089919;28;20200;-74
2024/01/14 07:41:28;;;;;;;36.33;17.73;;;-3.00;94.40;;;;;;5082951;28;20201;-76
2024/01/14 07:43:55;;;;;;;36.23;17.80;;;-3.00;94.40;;;;;;5077472;28;20841;-75
2024/01/14 07:46:21;;;;;;;34.77;17.27;;;-3.10;94.60;;;;;;5076382;28;20201;-75
2024/01/14 07:48:52;;;;;;;35.30;18.17;;;-3.00;95.00;;;;;;5080588;28;20200;-74
2024/01/14 07:51:19;;;;;;;34.33;17.07;;;-2.90;94.50;;;;;;5079350;28;20244;-74
2024/01/14 07:53:46;;;;;;;35.23;17.77;;;-2.70;94.00;;;;;;5082833;28;20210;-74
2024/01/14 07:59:11;;;;;;;30.70;16.07;;;-2.60;94.20;;;;;;5073075;28;20239;-73
2024/01/14 08:01:37;;;;;;;33.33;17.17;;;-2.60;93.50;;;;;;5078990;28;20193;-75
2024/01/14 08:04:06;;;;;;;34.80;18.10;;;-2.70;93.50;;;;;;5074460;28;20224;-74
2024/01/14 08:06:32;;;;;;;37.27;17.40;;;-2.80;93.40;;;;;;5080646;28;20192;-73
2024/01/14 08:08:59;;;;;;;33.73;18.03;;;-2.80;94.00;;;;;;5078138;28;20288;-75
2024/01/14 08:11:26;;;;;;;33.40;16.93;;;-2.80;94.00;;;;;;5078073;28;20231;-76
2024/01/14 08:13:53;;;;;;;36.97;17.97;;;-2.80;94.20;;;;;;5076780;28;20196;-80
2024/01/14 08:16:19;;;;;;;32.37;17.13;;;-2.80;94.50;;;;;;5084244;28;20541;-73
2024/01/14 08:18:46;;;;;;;32.67;17.83;;;-2.80;94.80;;;;;;5075074;28;20199;-74
2024/01/14 08:23:57;;;;;;;33.70;17.17;;;-2.60;94.30;;;;;;5080656;28;20261;-76
2024/01/14 08:26:24;;;;;;;27.07;14.73;;;-2.60;94.20;;;;;;5075997;28;20282;-74
2024/01/14 08:28:51;;;;;;;32.43;15.43;;;-2.50;93.50;;;;;;5073776;28;20212;-75
2024/01/14 08:31:24;;;;;;;28.47;15.13;;;-2.40;93.50;;;;;;5080250;28;20224;-76
2024/01/14 08:33:50;;;;;;;29.70;15.47;;;-2.30;93.50;;;;;;5077877;28;20274;-74
2024/01/14 08:36:18;;;;;;;30.57;15.60;;;-2.30;93.50;;;;;;5085849;28;20219;-75
2024/01/14 08:38:45;;;;;;;29.70;16.03;;;-2.20;93.20;;;;;;5083241;28;20189;-74
2024/01/14 08:41:13;;;;;;;30.17;15.90;;;-2.10;93.40;;;;;;5078304;28;20562;-75
2024/01/14 08:43:40;;;;;;;31.50;16.30;;;-1.90;93.40;;;;;;5082152;28;20199;-76
2024/01/14 08:46:09;;;;;;;28.97;15.87;;;-1.70;92.90;;;;;;5079303;28;20192;-76
2024/01/14 08:48:36;;;;;;;28.23;15.40;;;-1.50;91.90;;;;;;5080390;28;20384;-76
2024/01/14 08:51:03;;;;;;;30.33;16.17;;;-1.50;91.50;;;;;;5081812;28;20958;-74
2024/01/14 08:53:31;;;;;;;31.07;16.53;;;-1.50;91.00;;;;;;5081601;28;20418;-76
2024/01/14 08:55:58;;;;;;;31.57;16.93;;;-1.70;91.60;;;;;;5078881;28;20287;-76
2024/01/14 08:58:25;;;;;;;31.57;16.20;;;-1.60;92.10;;;;;;5081505;28;20208;-77
2024/01/14 09:00:52;;;;;;;31.30;16.77;;;-1.40;91.40;;;;;;5083112;28;20207;-77
2024/01/14 09:03:18;;;;;;;29.40;16.23;;;-1.30;91.60;;;;;;5081991;28;20197;-76
2024/01/14 09:05:46;;;;;;;30.60;16.13;;;-1.20;91.40;;;;;;5084977;28;20217;-75
2024/01/14 09:08:13;;;;;;;31.97;16.57;;;-1.10;91.30;;;;;;5088801;28;20325;-76
2024/01/14 09:10:42;;;;;;;29.93;16.60;;;-1.30;91.10;;;;;;5084940;28;20576;-76
2024/01/14 09:13:08;;;;;;;30.50;16.47;;;-1.30;91.10;;;;;;5083370;28;20203;-76
2024/01/14 09:15:35;;;;;;;30.60;16.90;;;-1.20;90.90;;;;;;5085006;28;20207;-77
2024/01/14 09:18:02;;;;;;;31.70;15.90;;;-1.40;91.30;;;;;;5080028;28;20195;-78
2024/01/14 09:20:29;;;;;;;33.60;16.57;;;-1.30;91.20;;;;;;5087142;28;20216;-75
2024/01/14 09:22:56;;;;;;;29.77;16.17;;;-1.30;91.10;;;;;;5088275;28;20279;-76
2024/01/14 09:25:22;;;;;;;27.37;15.03;;;-1.20;91.40;;;;;;5086168;28;20210;-76
2024/01/14 09:27:55;;;;;;;27.93;15.50;;;-1.30;91.20;;;;;;5079656;28;20197;-76
2024/01/14 09:30:22;;;;;;;27.57;15.53;;;-1.10;90.70;;;;;;5087116;28;20225;-77
2024/01/14 09:32:48;;;;;;;28.00;15.70;;;-1.10;90.70;;;;;;5079415;28;20658;-79
2024/01/14 09:35:15;;;;;;;30.27;15.60;;;-0.90;90.70;;;;;;5076949;28;20594;-77
2024/01/14 09:37:42;;;;;;;26.73;15.23;;;-0.90;90.30;;;;;;5089222;28;20672;-78
2024/01/14 09:40:09;;;;;;;30.63;15.60;;;-0.80;90.40;;;;;;5078882;28;20201;-73
2024/01/14 09:42:39;;;;;;;26.37;14.47;;;-0.40;90.20;;;;;;5081014;28;20192;-75
2024/01/14 09:45:08;;;;;;;26.47;15.10;;;0.10;87.80;;;;;;5081712;28;20199;-77
2024/01/14 09:47:35;;;;;;;25.90;15.30;;;0.60;82.00;;;;;;5085802;28;20688;-80
2024/01/14 09:50:03;;;;;;;26.53;15.07;;;1.00;78.70;;;;;;5088190;28;20220;-78
2024/01/14 09:52:31;;;;;;;25.93;15.23;;;1.40;72.30;;;;;;5088098;28;20196;-81
2024/01/14 09:54:58;;;;;;;27.20;15.90;;;1.40;72.00;;;;;;5088299;28;20701;-81
2024/01/14 09:57:25;;;;;;;25.07;15.40;;;1.70;67.80;;;;;;5086569;28;20202;-80
2024/01/14 09:59:56;;;;;;;27.53;16.63;;;2.30;58.50;;;;;;5077794;28;20216;-82
2024/01/14 10:02:26;;;;;;;26.70;15.90;;;2.30;57.70;;;;;;5085212;28;20188;-84
2024/01/14 10:04:53;;;;;;;26.23;16.05;;;2.20;56.50;;;;;;5065345;28;20213;-83
2024/01/14 10:07:32;;;;;;;23.20;15.40;;;2.60;54.80;;;;;;5086309;28;20571;-81
2024/01/14 10:09:59;;;;;;;27.08;16.42;;;3.00;48.70;;;;;;5081679;28;20221;-89
2024/01/14 10:12:26;;;;;;;23.58;15.23;;;3.00;46.50;;;;;;5083598;28;20193;-81
2024/01/14 10:14:58;;;;;;;24.67;14.97;;;2.90;45.80;;;;;;5088017;28;20192;-85
2024/01/14 10:17:28;;;;;;;26.80;15.30;;;2.60;47.40;;;;;;5080448;28;20254;-87
2024/01/14 10:19:55;;;;;;;29.13;16.13;;;2.80;47.80;;;;;;5080816;28;22253;-87
2024/01/14 10:22:22;;;;;;;25.70;14.90;;;2.80;47.90;;;;;;5086358;28;20203;-87
2024/01/14 10:24:52;;;;;;;25.63;15.57;;;2.90;47.70;;;;;;5086679;28;20201;-85
2024/01/14 10:27:19;;;;;;;25.73;16.07;;;2.60;48.20;;;;;;5081409;28;20208;-88
2024/01/14 10:29:46;;;;;;;25.53;15.77;;;2.50;49.50;;;;;;5088533;28;20208;-88
2024/01/14 10:32:14;;;;;;;24.10;14.70;;;2.40;49.40;;;;;;5080804;28;20193;-87
2024/01/14 10:34:43;;;;;;;24.57;15.37;;;2.70;47.80;;;;;;5073331;28;20198;-86
2024/01/14 10:37:10;;;;;;;26.67;16.50;;;2.80;47.70;;;;;;5079301;28;20565;-90
2024/01/14 10:39:38;;;;;;;30.23;15.97;;;2.50;48.90;;;;;;5081566;28;20193;-86
2024/01/14 10:42:05;;;;;;;26.10;15.57;;;2.40;51.50;;;;;;5084200;28;21459;-88
2024/01/14 10:44:32;;;;;;;23.10;15.50;;;2.70;50.30;;;;;;5066327;28;20193;-88
2024/01/14 10:47:03;;;;;;;24.80;15.93;;;2.90;49.30;;;;;;5063400;28;20923;-84
2024/01/14 10:49:32;;;;;;;27.88;17.00;;;3.30;42.90;;;;;;5079059;28;21230;-85
2024/01/14 10:52:07;;;;;;;25.13;15.98;;;3.80;43.00;;;;;;5088614;28;20311;-86
2024/01/14 10:54:42;;;;;;;24.58;15.88;;;4.20;36.10;;;;;;5086455;28;20276;-83
2024/01/14 10:57:20;;;;;;;24.13;16.25;;;3.80;38.50;;;;;;5077025;28;20197;-83
2024/01/14 10:59:49;;;;;;;24.83;16.25;;;3.50;40.90;;;;;;5086047;28;20213;-83
2024/01/14 11:02:18;;;;;;;26.50;15.98;;;3.60;38.80;;;;;;5079048;28;20203;-84
2024/01/14 11:04:45;;;;;;;25.33;16.02;;;4.10;37.80;;;;;;5073900;28;20300;-85
2024/01/14 11:07:13;;;;;;;23.13;15.70;;;4.40;34.80;;;;;;5088040;28;20287;-87
2024/01/14 11:09:43;;;;;;;22.90;15.63;;;4.60;33.80;;;;;;5086415;28;20271;-80
2024/01/14 11:12:22;;;;;;;21.95;14.75;;;4.20;35.00;;;;;;5084358;28;20240;-82
2024/01/14 11:14:55;;;;;;;24.73;16.20;;;4.00;34.60;;;;;;5084216;28;20189;-80
2024/01/14 11:17:42;;;;;;;23.38;15.77;;;4.00;33.60;;;;;;5079031;28;20193;-83
2024/01/14 11:20:15;;;;;;;22.90;15.70;;;3.60;36.70;;;;;;5081185;28;20200;-83
2024/01/14 11:22:44;;;;;;;24.23;15.27;;;3.40;36.70;;;;;;5078812;28;20194;-84
2024/01/14 11:25:17;;;;;;;27.23;16.30;;;3.10;38.00;;;;;;5083672;28;20577;-84
2024/01/14 11:27:45;;;;;;;23.63;15.07;;;2.90;42.50;;;;;;5081263;28;20200;-85
2024/01/14 11:30:18;;;;;;;22.93;13.90;;;2.50;42.30;;;;;;5060112;28;20980;-81
2024/01/14 11:32:45;;;;;;;22.67;14.27;;;2.30;42.10;;;;;;5086694;28;20203;-78
2024/01/14 11:35:31;;;;;;;26.93;14.97;;;2.10;45.30;;;;;;5086263;28;20279;-78
2024/01/14 11:38:00;;;;;;;24.73;15.03;;;2.10;48.20;;;;;;5074990;28;20201;-83
2024/01/14 11:40:27;;;;;;;23.13;14.23;;;2.00;48.60;;;;;;5085975;28;20197;-77
2024/01/14 11:43:02;;;;;;;23.87;13.73;;;1.90;51.80;;;;;;5078713;28;20254;-77
2024/01/14 11:45:33;;;;;;;27.97;15.23;;;1.90;48.80;;;;;;5078957;28;20220;-76
2024/01/14 11:48:21;;;;;;;24.47;14.03;;;1.90;50.70;;;;;;5082808;28;20196;-77
2024/01/14 11:50:50;;;;;;;25.70;14.40;;;2.10;49.20;;;;;;5084211;28;20216;-75
2024/01/14 11:53:19;;;;;;;23.20;13.23;;;2.10;47.80;;;;;;5083285;28;20201;-76
2024/01/14 11:55:46;;;;;;;23.30;13.60;;;1.90;48.30;;;;;;5088935;28;20298;-76
2024/01/14 11:58:17;;;;;;;25.80;13.60;;;1.80;48.70;;;;;;5080055;28;20201;-75
2024/01/14 12:00:46;;;;;;;25.50;13.53;;;1.60;50.40;;;;;;5085344;28;20223;-78
2024/01/14 12:03:15;;;;;;;25.73;14.40;;;1.60;51.50;;;;;;5080594;28;20216;-76
2024/01/14 12:05:42;;;;;;;25.13;13.90;;;1.60;52.10;;;;;;5082103;28;21038;-77
2024/01/14 12:08:10;;;;;;;24.83;13.50;;;1.70;52.80;;;;;;5083931;28;20560;-74
2024/01/14 12:10:38;;;;;;;21.83;13.03;;;1.80;50.80;;;;;;5077762;28;20225;-78
2024/01/14 12:13:07;;;;;;;24.27;13.17;;;1.90;51.10;;;;;;5080524;28;20201;-77
2024/01/14 12:15:34;;;;;;;22.87;13.50;;;1.90;50.50;;;;;;5086415;28;20220;-77
2024/01/14 12:18:02;;;;;;;23.40;13.17;;;1.90;53.30;;;;;;5084444;28;20679;-77
2024/01/14 12:20:30;;;;;;;23.93;13.77;;;2.00;51.00;;;;;;5078478;28;20672;-74
2024/01/14 12:23:02;;;;;;;23.90;13.30;;;2.10;49.60;;;;;;5082522;28;20219;-74
2024/01/14 12:26:15;;;;;;;22.93;13.50;;;2.10;50.10;;;;;;5083027;28;20239;-73
2024/01/14 12:55:29;;;;;;;21.53;12.10;;;2.30;48.30;;;;;;5087777;28;20257;-74
2024/01/14 13:01:03;;;;;;;22.40;13.60;;;2.60;45.20;;;;;;5078280;28;20205;-74
2024/01/14 13:07:02;;;;;;;19.97;11.80;;;2.70;42.40;;;;;;5078326;28;20201;-75
2024/01/14 13:09:52;;;;;;;20.63;12.07;;;2.60;42.50;;;;;;5078468;28;20204;-79
2024/01/14 13:12:19;;;;;;;20.90;11.83;;;2.70;42.50;;;;;;5081736;28;20274;-77
2024/01/14 13:14:46;;;;;;;20.20;11.87;;;2.80;42.50;;;;;;5079606;28;20406;-75
2024/01/14 13:19:53;;;;;;;20.93;12.43;;;2.70;44.30;;;;;;5082628;28;20200;-76
2024/01/14 13:22:22;;;;;;;20.43;12.07;;;2.60;42.30;;;;;;5080441;28;20197;-76
2024/01/14 13:24:50;;;;;;;18.10;11.73;;;2.50;42.30;;;;;;5077630;28;20199;-76
2024/01/14 13:27:17;;;;;;;20.47;11.60;;;2.50;42.30;;;;;;5074612;28;20290;-79
2024/01/14 13:29:44;;;;;;;19.27;11.63;;;2.50;42.30;;;;;;5079522;28;20666;-75
2024/01/14 13:35:01;;;;;;;19.47;11.80;;;2.30;42.10;;;;;;5073820;28;20196;-74
2024/01/14 13:37:39;;;;;;;18.73;11.50;;;2.20;44.30;;;;;;5080271;28;20327;-79
2024/01/14 13:40:42;;;;;;;19.70;11.43;;;2.10;44.90;;;;;;5081487;28;20254;-75
2024/01/14 13:43:09;;;;;;;21.87;11.90;;;2.00;45.80;;;;;;5078985;28;20201;-75
2024/01/14 13:45:40;;;;;;;20.40;11.00;;;2.00;47.30;;;;;;5079155;28;20194;-75
2024/01/14 13:51:19;;;;;;;19.57;11.13;;;1.90;48.50;;;;;;5080264;28;20221;-75
2024/01/14 13:57:15;;;;;;;21.57;11.23;;;1.80;46.90;;;;;;5073647;28;20201;-74
2024/01/14 13:59:42;;;;;;;20.10;11.03;;;1.70;48.10;;;;;;5084323;28;20201;-73
2024/01/14 14:02:19;;;;;;;21.73;12.00;;;1.60;49.40;;;;;;5079102;28;20204;-74